Time;durP1;ratioP1;P1;durP2;ratioP2;P2;SDS_P1;SDS_P2;PMS_P1;PMS_P2;Temp;Humidity;BMP_temperature;BMP_pressure;BME280_temperature;BME280_humidity;BME280_pressure;Samples;Min_cycle;Max_cycle;Signal;HPM_P1;HPM_P2
2023/09/21 00:01:12;;;;;;;5.82;2.40;;;;;;;19.52;74.49;97817.88;4378822;32;20162;-77
2023/09/21 00:03:39;;;;;;;7.75;2.42;;;;;;;19.17;76.46;97820.78;4379692;32;20102;-77
2023/09/21 00:06:07;;;;;;;6.75;2.30;;;;;;;18.36;80.83;97811.53;4379924;32;20492;-77
2023/09/21 00:08:34;;;;;;;4.82;2.20;;;;;;;18.42;80.97;97818.06;4379951;32;20103;-77
2023/09/21 00:11:04;;;;;;;6.62;2.12;;;;;;;18.60;81.06;97807.94;4379689;32;20082;-77
2023/09/21 00:13:38;;;;;;;9.55;2.40;;;;;;;18.34;81.95;97813.44;4366735;32;20141;-77
2023/09/21 00:16:14;;;;;;;6.43;2.50;;;;;;;18.43;81.06;97798.81;4379989;32;20107;-77
2023/09/21 00:18:42;;;;;;;7.78;2.85;;;;;;;18.37;81.66;97807.13;4379713;32;20090;-77
2023/09/21 00:21:12;;;;;;;6.57;2.12;;;;;;;17.96;83.98;97808.53;4382651;32;20507;-77
2023/09/21 00:23:40;;;;;;;8.02;2.28;;;;;;;17.95;85.21;97806.87;4410040;32;20148;-77
2023/09/21 00:26:10;;;;;;;5.57;2.33;;;;;;;18.20;84.15;97798.00;4396094;32;20193;-77
2023/09/21 00:28:37;;;;;;;6.28;2.50;;;;;;;18.13;85.03;97807.25;4409782;32;20145;-77
2023/09/21 00:31:04;;;;;;;8.35;2.42;;;;;;;18.84;82.67;97800.81;4409685;32;20157;-77
2023/09/21 00:33:33;;;;;;;9.02;2.85;;;;;;;19.34;81.26;97799.28;4409957;32;20108;-77
2023/09/21 00:36:04;;;;;;;10.90;3.12;;;;;;;19.67;80.49;97807.94;4396185;32;20102;-77
2023/09/21 00:38:31;;;;;;;8.82;2.58;;;;;;;19.88;80.05;97803.56;4409817;32;20098;-77
2023/09/21 00:41:04;;;;;;;7.07;2.47;;;;;;;19.99;79.11;97800.03;4409843;32;20164;-77
2023/09/21 00:43:32;;;;;;;11.05;2.65;;;;;;;20.06;77.63;97797.69;4409936;32;20140;-77
2023/09/21 00:46:03;;;;;;;6.53;2.65;;;;;;;19.90;76.40;97799.03;4409515;32;20498;-77
2023/09/21 00:48:38;;;;;;;7.15;2.67;;;;;;;19.98;76.47;97797.53;4409700;32;20155;-77
2023/09/21 00:51:07;;;;;;;6.47;2.50;;;;;;;20.45;75.63;97796.09;4409774;32;20152;-77
2023/09/21 00:53:35;;;;;;;9.27;2.65;;;;;;;20.65;73.81;97789.97;4409394;32;20397;-77
2023/09/21 00:56:11;;;;;;;5.72;2.47;;;;;;;20.92;71.99;97793.72;4395581;32;20125;-77
2023/09/21 00:58:44;;;;;;;9.45;2.60;;;;;;;20.94;71.02;97799.66;4409827;32;20444;-77
2023/09/21 01:01:23;;;;;;;5.95;2.20;;;;;;;20.30;73.03;97800.84;4409470;32;20107;-77
2023/09/21 01:03:52;;;;;;;5.97;2.42;;;;;;;19.50;73.63;97791.03;4397006;32;20086;-77
2023/09/21 01:06:19;;;;;;;6.43;2.50;;;;;;;18.84;76.40;97790.34;4395844;32;20164;-77
2023/09/21 01:08:46;;;;;;;9.73;2.60;;;;;;;19.05;76.80;97786.00;4395877;32;20216;-77
2023/09/21 01:11:14;;;;;;;8.52;2.80;;;;;;;18.78;79.44;97788.22;4409473;32;20090;-77
2023/09/21 01:13:42;;;;;;;12.18;2.97;;;;;;;18.81;80.14;97785.34;4409140;32;20091;-77
2023/09/21 01:16:12;;;;;;;7.37;2.85;;;;;;;18.39;85.98;97782.53;4395896;32;20176;-77
2023/09/21 01:18:42;;;;;;;8.27;3.03;;;;;;;19.23;81.71;97786.25;4396232;32;20105;-77
2023/09/21 01:21:13;;;;;;;7.60;2.47;;;;;;;19.51;79.38;97776.97;4408831;32;20979;-77
2023/09/21 01:23:50;;;;;;;9.85;2.62;;;;;;;19.61;78.33;97777.06;4396010;32;20078;-77
2023/09/21 01:26:18;;;;;;;6.25;2.65;;;;;;;19.11;78.63;97774.19;4409393;32;20113;-77
2023/09/21 01:28:47;;;;;;;7.62;2.78;;;;;;;19.16;79.08;97773.84;4408967;32;20437;-77
2023/09/21 01:31:18;;;;;;;8.52;3.20;;;;;;;19.24;79.78;97772.22;4395758;32;20093;-77
2023/09/21 01:33:45;;;;;;;10.55;2.87;;;;;;;18.97;81.97;97766.66;4409313;32;20074;-77
2023/09/21 01:36:15;;;;;;;9.60;2.92;;;;;;;19.62;77.98;97763.03;4408869;32;20156;-77
2023/09/21 01:38:45;;;;;;;6.95;2.47;;;;;;;18.93;80.67;97757.41;4395963;32;20177;-77
2023/09/21 01:41:14;;;;;;;6.53;2.55;;;;;;;18.65;81.59;97756.19;4395761;32;20441;-77
2023/09/21 01:43:42;;;;;;;8.75;2.62;;;;;;;17.89;85.39;97753.37;4395560;32;20147;-77
2023/09/21 01:46:09;;;;;;;7.20;2.97;;;;;;;18.27;84.54;97748.72;4408983;32;20145;-77
2023/09/21 01:48:36;;;;;;;7.90;3.05;;;;;;;18.13;85.90;97748.03;4408732;32;20094;-77
2023/09/21 01:51:05;;;;;;;10.25;3.40;;;;;;;18.46;83.73;97752.37;4408927;32;20104;-77
2023/09/21 01:53:32;;;;;;;9.07;3.17;;;;;;;19.15;81.89;97744.25;4408951;32;20086;-77
2023/09/21 01:55:59;;;;;;;10.98;3.30;;;;;;;19.62;78.30;97739.47;4408647;32;20103;-77
2023/09/21 01:58:27;;;;;;;7.80;3.05;;;;;;;20.05;75.39;97741.06;4408967;32;20102;-77
2023/09/21 02:00:54;;;;;;;10.68;3.30;;;;;;;20.41;72.88;97737.84;4408738;32;20094;-77
2023/09/21 02:03:30;;;;;;;7.57;2.40;;;;;;;20.86;70.69;97749.69;4408521;32;20086;-77
2023/09/21 02:05:59;;;;;;;7.95;2.62;;;;;;;20.41;69.06;97744.87;4408934;32;20129;-77
2023/09/21 02:08:27;;;;;;;8.00;2.67;;;;;;;19.03;75.79;97745.22;4395495;32;20150;-77
2023/09/21 02:10:54;;;;;;;8.68;3.00;;;;;;;18.84;77.45;97745.91;4410524;32;20094;-77
2023/09/21 02:13:21;;;;;;;10.27;2.80;;;;;;;17.68;86.30;97733.31;4410876;32;20156;-77
2023/09/21 02:15:51;;;;;;;11.12;2.62;;;;;;;18.46;80.46;97733.28;4397063;32;20124;-77
2023/09/21 02:18:19;;;;;;;7.72;2.70;;;;;;;18.20;83.35;97732.72;4410660;32;20164;-77
2023/09/21 02:20:50;;;;;;;6.20;2.80;;;;;;;18.97;77.97;97723.03;4410935;32;20596;-77
2023/09/21 02:23:21;;;;;;;7.87;2.97;;;;;;;18.91;79.06;97720.91;4410639;32;20146;-77
2023/09/21 02:25:49;;;;;;;9.13;3.33;;;;;;;18.55;81.06;97727.31;4410688;32;20165;-77
2023/09/21 02:28:16;;;;;;;7.62;2.92;;;;;;;18.14;84.33;97717.53;4410802;32;20438;-77
2023/09/21 02:30:47;;;;;;;8.15;2.72;;;;;;;17.54;87.54;97719.50;4410608;32;20090;-77
2023/09/21 02:33:18;;;;;;;8.07;2.97;;;;;;;17.19;90.82;97716.13;4410754;32;20104;-77
2023/09/21 02:35:46;;;;;;;10.45;2.92;;;;;;;17.56;88.24;97722.03;4410904;32;20152;-77
2023/09/21 02:38:17;;;;;;;7.85;3.20;;;;;;;18.04;84.79;97724.44;4410449;32;20674;-77
2023/09/21 02:40:45;;;;;;;12.32;3.30;;;;;;;18.29;83.77;97718.09;4410724;32;20177;-77
2023/09/21 02:43:15;;;;;;;10.57;3.55;;;;;;;18.06;84.81;97712.91;4410561;32;20086;-77
2023/09/21 02:45:44;;;;;;;9.77;3.50;;;;;;;18.02;85.83;97711.50;4410199;32;20097;-77
2023/09/21 02:48:14;;;;;;;12.02;3.30;;;;;;;17.61;88.67;97707.66;4410633;32;20166;-77
2023/09/21 02:50:43;;;;;;;10.10;3.20;;;;;;;18.23;83.89;97702.94;4410668;32;20112;-77
2023/09/21 02:53:12;;;;;;;8.60;3.60;;;;;;;18.26;83.55;97705.28;4410248;32;20082;-77
2023/09/21 02:55:40;;;;;;;9.93;3.28;;;;;;;18.11;83.42;97702.94;4410461;32;20102;-77
2023/09/21 02:58:10;;;;;;;7.75;3.08;;;;;;;17.59;86.04;97698.31;4410741;32;20097;-77
2023/09/21 03:00:39;;;;;;;10.63;3.58;;;;;;;17.45;87.39;97701.97;4410413;32;20449;-77
2023/09/21 03:03:07;;;;;;;9.38;3.72;;;;;;;16.92;92.63;97698.19;4396894;32;20081;-77
2023/09/21 03:05:38;;;;;;;7.90;3.35;;;;;;;16.93;92.31;97689.41;4396473;32;20457;-77
2023/09/21 03:08:13;;;;;;;11.50;3.60;;;;;;;16.17;98.05;97698.38;4397117;32;20156;-77
2023/09/21 03:10:44;;;;;;;10.48;3.62;;;;;;;16.93;93.64;97690.25;4410649;32;20449;-77
2023/09/21 03:13:19;;;;;;;11.80;3.40;;;;;;;16.70;93.76;97686.72;4410092;32;20149;-77
2023/09/21 03:15:52;;;;;;;9.30;3.78;;;;;;;16.67;93.73;97689.50;4410341;32;20106;-77
2023/09/21 03:18:20;;;;;;;10.20;3.58;;;;;;;17.07;90.71;97681.38;4410535;32;20094;-77
2023/09/21 03:20:48;;;;;;;12.65;3.92;;;;;;;16.88;90.91;97686.28;4409934;32;20104;-77
2023/09/21 03:23:15;;;;;;;8.68;3.58;;;;;;;16.83;91.51;97684.03;4410289;32;20106;-77
2023/09/21 03:25:50;;;;;;;15.13;4.05;;;;;;;16.72;90.86;97689.22;4410270;32;20154;-77
2023/09/21 03:28:19;;;;;;;10.27;3.60;;;;;;;16.82;91.26;97685.00;4410007;32;20156;-77
2023/09/21 03:30:48;;;;;;;9.50;3.87;;;;;;;16.84;91.18;97684.87;4410418;32;20138;-77
2023/09/21 03:33:19;;;;;;;11.12;3.65;;;;;;;16.46;93.55;97685.84;4410403;32;20086;-77
2023/09/21 03:35:46;;;;;;;12.48;4.00;;;;;;;17.06;89.64;97682.34;4410008;32;20112;-77
2023/09/21 03:38:13;;;;;;;8.80;3.53;;;;;;;16.52;93.00;97675.00;4410439;32;20106;-77
2023/09/21 03:40:42;;;;;;;11.57;3.90;;;;;;;17.04;90.13;97666.81;4410076;32;20157;-77
2023/09/21 03:43:12;;;;;;;10.13;4.00;;;;;;;16.99;90.38;97675.91;4396573;32;20085;-77
2023/09/21 03:45:44;;;;;;;11.75;3.60;;;;;;;16.45;93.84;97664.19;4410159;32;20164;-77
2023/09/21 03:48:12;;;;;;;9.57;3.60;;;;;;;16.92;91.38;97661.69;4396295;32;20483;-77
2023/09/21 03:50:41;;;;;;;10.98;3.62;;;;;;;16.70;91.62;97665.88;4396767;32;20093;-77
2023/09/21 03:53:11;;;;;;;12.93;3.92;;;;;;;16.67;91.65;97660.84;4410189;32;20086;-77
2023/09/21 03:55:39;;;;;;;10.38;3.90;;;;;;;16.78;91.44;97660.91;4396232;32;20128;-77
2023/09/21 03:58:07;;;;;;;10.88;3.85;;;;;;;16.86;89.99;97662.97;4396786;32;20118;-77
2023/09/21 04:03:04;;;;;;;11.00;3.90;;;;;;;16.63;90.81;97666.41;4409891;32;20074;-77
2023/09/21 04:05:31;;;;;;;9.02;4.03;;;;;;;16.38;93.33;97657.78;4410008;32;20094;-77
2023/09/21 04:07:58;;;;;;;11.95;3.72;;;;;;;16.59;91.58;97660.59;4410244;32;20137;-77
2023/09/21 04:10:26;;;;;;;11.35;4.50;;;;;;;16.60;91.29;97661.44;4409822;32;20373;-77
2023/09/21 04:12:56;;;;;;;11.07;4.18;;;;;;;16.50;91.76;97653.47;4396427;32;20488;-77
2023/09/21 04:15:27;;;;;;;19.27;4.03;;;;;;;17.59;84.85;97652.19;4396591;32;20173;-77
2023/09/21 04:17:54;;;;;;;10.20;3.65;;;;;;;17.73;83.75;97656.34;4396590;32;20098;-77
2023/09/21 04:20:22;;;;;;;11.93;4.03;;;;;;;18.06;80.27;97660.69;4410115;32;20086;-77
2023/09/21 04:22:51;;;;;;;9.88;3.90;;;;;;;17.72;81.68;97662.50;4409513;32;20429;-77
2023/09/21 04:25:19;;;;;;;14.27;3.90;;;;;;;17.99;79.62;97656.94;4396458;32;20097;-77
2023/09/21 04:27:50;;;;;;;8.00;3.53;;;;;;;17.48;82.26;97657.38;4409997;32;20147;-77
2023/09/21 04:30:21;;;;;;;9.05;3.58;;;;;;;17.37;82.65;97652.16;4409714;32;20176;-78
2023/09/21 04:32:50;;;;;;;12.43;3.60;;;;;;;17.29;82.80;97654.53;4395926;32;20094;-77
2023/09/21 04:35:19;;;;;;;10.77;3.90;;;;;;;17.49;82.53;97653.00;4396342;32;20098;-77
2023/09/21 04:37:47;;;;;;;13.18;4.00;;;;;;;17.82;80.65;97650.41;4409682;32;20086;-77
2023/09/21 04:40:14;;;;;;;19.73;4.45;;;;;;;17.60;82.78;97647.78;4409909;32;20086;-77
2023/09/21 04:42:45;;;;;;;12.20;4.00;;;;;;;17.59;82.49;97657.41;4409766;32;20141;-77
2023/09/21 04:45:14;;;;;;;13.55;4.07;;;;;;;18.13;80.44;97654.03;4409376;32;20472;-77
2023/09/21 04:47:48;;;;;;;8.82;3.42;;;;;;;17.75;81.69;97649.22;4396341;32;20640;-77
2023/09/21 04:50:17;;;;;;;10.80;3.70;;;;;;;18.29;77.63;97651.06;4396383;32;20094;-77
2023/09/21 04:52:45;;;;;;;10.75;3.30;;;;;;;17.86;80.04;97643.16;4409383;32;20086;-77
2023/09/21 04:55:15;;;;;;;13.25;3.75;;;;;;;17.36;82.95;97650.50;4409509;32;20153;-77
2023/09/21 04:57:44;;;;;;;12.05;4.15;;;;;;;17.38;84.13;97653.81;4409433;32;20202;-78
2023/09/21 05:00:14;;;;;;;10.70;3.80;;;;;;;17.46;84.13;97656.69;4395903;32;20090;-77
2023/09/21 05:02:43;;;;;;;13.55;4.15;;;;;;;17.04;85.24;97650.34;4396067;32;20140;-77
2023/09/21 05:05:13;;;;;;;8.93;3.70;;;;;;;17.27;85.47;97651.22;4409226;32;20431;-77
2023/09/21 05:07:40;;;;;;;10.32;3.95;;;;;;;17.28;85.82;97651.09;4409641;32;20112;-77
2023/09/21 05:10:11;;;;;;;11.12;3.92;;;;;;;17.59;85.01;97657.41;4395808;32;20087;-77
2023/09/21 05:12:39;;;;;;;11.95;4.00;;;;;;;17.41;87.29;97650.97;4409268;32;20151;-77
2023/09/21 05:15:08;;;;;;;10.00;3.87;;;;;;;18.05;85.93;97650.38;4409318;32;20159;-77
2023/09/21 05:17:38;;;;;;;12.43;4.00;;;;;;;18.36;84.02;97649.59;4396076;32;20507;-79
2023/09/21 05:20:06;;;;;;;10.80;4.03;;;;;;;18.48;82.79;97651.22;4409133;32;20110;-79
2023/09/21 05:22:34;;;;;;;10.00;4.18;;;;;;;18.30;83.10;97651.88;4409040;32;20090;-79
2023/09/21 05:25:03;;;;;;;11.45;4.45;;;;;;;17.48;89.17;97646.13;4409254;32;20089;-79
2023/09/21 05:27:30;;;;;;;12.45;4.97;;;;;;;17.82;88.40;97644.38;4408936;32;20433;-79
2023/09/21 05:30:00;;;;;;;11.95;4.40;;;;;;;17.11;93.01;97643.69;4409124;32;20082;-79
2023/09/21 05:32:32;;;;;;;11.50;4.43;;;;;;;17.14;94.09;97637.44;4409242;32;20547;-79
2023/09/21 05:35:07;;;;;;;13.85;4.40;;;;;;;17.12;95.71;97636.72;4408902;32;20164;-79
2023/09/21 05:37:35;;;;;;;11.50;4.78;;;;;;;17.45;95.38;97639.38;4409257;32;20098;-79
2023/09/21 05:40:11;;;;;;;11.63;3.92;;;;;;;18.51;86.81;97639.69;4408901;32;20098;-79
2023/09/21 05:42:39;;;;;;;10.80;3.83;;;;;;;18.60;85.03;97636.31;4409098;32;20078;-78
2023/09/21 05:45:06;;;;;;;12.48;3.95;;;;;;;18.44;85.81;97633.31;4410544;32;20098;-79
2023/09/21 05:47:34;;;;;;;7.78;3.40;;;;;;;18.18;86.18;97628.41;4410751;32;20094;-79
2023/09/21 05:50:01;;;;;;;8.82;3.50;;;;;;;18.09;87.13;97628.31;4410920;32;20563;-80
2023/09/21 05:52:30;;;;;;;10.85;4.05;;;;;;;17.34;92.91;97624.56;4410884;32;20162;-79
2023/09/21 05:54:57;;;;;;;14.30;3.97;;;;;;;18.26;88.87;97625.16;4410540;32;20102;-80
2023/09/21 05:57:24;;;;;;;11.50;3.80;;;;;;;18.26;89.76;97625.16;4411095;32;20155;-79
2023/09/21 05:59:52;;;;;;;12.85;3.83;;;;;;;18.66;88.07;97622.78;4410992;32;20086;-78
2023/09/21 06:02:19;;;;;;;13.20;3.97;;;;;;;18.40;89.33;97624.91;4410474;32;20090;-78
2023/09/21 06:04:49;;;;;;;15.48;5.57;;;;;;;17.82;91.85;97626.94;4410731;32;20499;-78
2023/09/21 06:07:16;;;;;;;11.52;4.55;;;;;;;18.11;91.74;97629.03;4410910;32;20105;-78
2023/09/21 06:09:47;;;;;;;13.88;4.60;;;;;;;17.84;91.71;97630.25;4410358;32;20420;-78
2023/09/21 06:12:14;;;;;;;9.82;4.03;;;;;;;17.89;91.57;97627.28;4410820;32;20073;-78
2023/09/21 06:14:42;;;;;;;12.90;4.60;;;;;;;18.14;nan;97615.72;4410733;32;20201;-78
2023/09/21 06:17:13;;;;;;;12.82;4.03;;;;;;;18.32;89.46;97618.62;4396061;32;34780;-78
2023/09/21 06:19:44;;;;;;;9.93;4.20;;;;;;;18.16;90.21;97624.25;4410808;32;20095;-78
2023/09/21 06:22:12;;;;;;;10.57;4.07;;;;;;;18.51;87.06;97624.03;4410110;32;20449;-78
2023/09/21 06:24:42;;;;;;;12.00;4.93;;;;;;;17.87;91.00;97629.19;4410716;32;20129;-78
2023/09/21 06:27:09;;;;;;;11.43;4.43;;;;;;;18.44;89.88;97628.91;4410925;32;20133;-78
2023/09/21 06:29:36;;;;;;;10.40;4.40;;;;;;;18.46;88.11;97634.84;4410311;32;20139;-78
2023/09/21 06:32:07;;;;;;;15.55;5.55;;;;;;;19.25;83.53;97635.28;4396951;32;20079;-78
2023/09/21 06:34:42;;;;;;;14.02;5.40;;;;;;;19.07;83.66;97639.44;4410568;32;20153;-78
2023/09/21 06:37:13;;;;;;;11.45;4.87;;;;;;;19.21;82.39;97640.91;4410340;32;20170;-78
2023/09/21 06:39:41;;;;;;;12.23;4.70;;;;;;;18.93;84.72;97637.16;4410715;32;20082;-79
2023/09/21 06:42:08;;;;;;;12.35;4.57;;;;;;;18.92;84.46;97635.47;4410550;32;20094;-79
2023/09/21 06:44:35;;;;;;;13.70;4.50;;;;;;;19.31;82.58;97632.13;4410157;32;20094;-80
2023/09/21 06:47:03;;;;;;;12.13;4.82;;;;;;;19.84;80.22;97634.59;4410742;32;20149;-79
2023/09/21 06:49:30;;;;;;;12.00;4.68;;;;;;;20.00;78.52;97636.72;4396962;32;20105;-79
2023/09/21 06:51:58;;;;;;;11.65;4.82;;;;;;;20.10;78.16;97634.94;4410286;32;20098;-79
2023/09/21 06:54:27;;;;;;;16.20;4.80;;;;;;;20.49;76.83;97635.84;4410095;32;20116;-79
2023/09/21 06:57:03;;;;;;;15.18;5.15;;;;;;;20.59;76.83;97645.50;4397006;32;20106;-79
2023/09/21 06:59:34;;;;;;;14.13;5.10;;;;;;;20.58;77.45;97643.84;4410707;32;20094;-79
2023/09/21 07:02:02;;;;;;;12.70;5.10;;;;;;;20.65;77.26;97653.66;4410570;32;20085;-79
2023/09/21 07:04:33;;;;;;;14.32;4.97;;;;;;;20.72;77.55;97654.72;4410144;32;20134;-79
2023/09/21 07:07:04;;;;;;;11.55;5.10;;;;;;;20.23;81.12;97651.22;4410529;32;20094;-79
2023/09/21 07:09:34;;;;;;;12.77;5.25;;;;;;;20.26;81.92;97642.28;4410454;32;20089;-80
2023/09/21 07:12:02;;;;;;;13.15;4.70;;;;;;;21.15;77.76;97650.00;4409998;32;20113;-80
2023/09/21 07:14:32;;;;;;;12.90;4.57;;;;;;;21.72;75.39;97645.59;4410244;32;20110;-80
2023/09/21 07:17:00;;;;;;;12.27;4.90;;;;;;;22.88;69.72;97650.12;4410467;32;20140;-80
2023/09/21 07:19:27;;;;;;;11.65;4.60;;;;;;;22.43;72.06;97651.81;4409984;32;20120;-80
2023/09/21 07:21:54;;;;;;;13.18;4.80;;;;;;;22.50;71.84;97641.53;4396308;32;20100;-79
2023/09/21 07:24:21;;;;;;;12.95;3.92;;;;;;;23.02;70.02;97639.88;4410334;32;20563;-80
2023/09/21 07:26:49;;;;;;;12.30;3.60;;;;;;;23.00;70.75;97638.37;4409973;32;20117;-78
2023/09/21 07:29:17;;;;;;;9.15;3.65;;;;;;;23.33;69.50;97645.50;4410279;32;20427;-79
2023/09/21 07:31:44;;;;;;;7.65;3.28;;;;;;;24.09;66.23;97649.19;4410086;32;20078;-82
2023/09/21 07:34:11;;;;;;;8.00;3.40;;;;;;;24.49;64.74;97646.69;4409911;32;20117;-79
2023/09/21 07:36:38;;;;;;;10.73;3.85;;;;;;;24.56;64.18;97646.00;4410439;32;20128;-80
2023/09/21 07:39:10;;;;;;;9.48;3.92;;;;;;;24.94;61.74;97648.03;4409951;32;20169;-80
2023/09/21 07:41:40;;;;;;;8.35;3.45;;;;;;;24.97;62.29;97646.84;4410155;32;20398;-80
2023/09/21 07:44:10;;;;;;;10.10;4.03;;;;;;;24.89;61.50;97655.63;4410219;32;20094;-79
2023/09/21 07:46:37;;;;;;;11.63;4.78;;;;;;;23.88;65.06;97657.50;4410027;32;20154;-79
2023/09/21 07:49:07;;;;;;;10.98;3.97;;;;;;;23.20;66.72;97655.63;4410253;32;20149;-79
2023/09/21 07:51:34;;;;;;;13.40;4.20;;;;;;;22.98;68.44;97664.03;4410229;32;20158;-79
2023/09/21 07:54:04;;;;;;;11.88;4.30;;;;;;;22.57;70.23;97661.00;4409810;32;20221;-79
2023/09/21 07:56:32;;;;;;;14.93;4.45;;;;;;;21.78;73.45;97660.75;4410376;32;20098;-79
2023/09/21 07:58:59;;;;;;;13.60;4.53;;;;;;;21.50;75.03;97670.41;4410230;32;20101;-79
2023/09/21 08:01:27;;;;;;;14.30;5.93;;;;;;;21.39;74.92;97679.25;4409741;32;20558;-79
2023/09/21 08:03:54;;;;;;;13.45;5.10;;;;;;;20.71;79.02;97670.59;4410142;32;20098;-79
2023/09/21 08:06:22;;;;;;;13.68;5.07;;;;;;;20.51;80.69;97670.59;4409098;32;20751;-79
2023/09/21 08:08:52;;;;;;;11.82;4.65;;;;;;;21.21;77.47;97671.25;4409384;32;20090;-80
2023/09/21 08:11:19;;;;;;;12.55;4.95;;;;;;;22.02;74.81;97676.00;4409840;32;20156;-78
2023/09/21 08:13:46;;;;;;;15.40;5.07;;;;;;;22.83;70.99;97676.84;4409766;32;20150;-78
2023/09/21 08:16:13;;;;;;;11.82;4.40;;;;;;;23.08;70.73;97677.91;4409598;32;20118;-78
2023/09/21 08:18:40;;;;;;;11.10;4.65;;;;;;;23.15;70.48;97665.78;4396288;32;20082;-80
2023/09/21 08:21:09;;;;;;;10.48;3.80;;;;;;;23.85;68.40;97669.19;4409402;32;20137;-80
2023/09/21 08:23:37;;;;;;;11.60;3.90;;;;;;;23.93;67.71;97669.25;4409577;32;20453;-81
2023/09/21 08:26:04;;;;;;;11.55;4.00;;;;;;;24.74;64.19;97667.81;4409651;32;20090;-80
2023/09/21 08:28:31;;;;;;;12.48;3.50;;;;;;;24.42;64.36;97679.13;4409565;32;20453;-79
2023/09/21 08:30:58;;;;;;;13.75;4.75;;;;;;;24.33;64.33;97677.44;4409621;32;20074;-79
2023/09/21 08:33:25;;;;;;;13.98;4.03;;;;;;;24.27;65.28;97678.09;4409716;32;20094;-79
2023/09/21 08:35:52;;;;;;;13.40;4.60;;;;;;;24.87;63.13;97673.41;4409327;32;20099;-79
2023/09/21 08:38:19;;;;;;;13.90;4.20;;;;;;;24.81;61.95;97679.38;4409800;32;20090;-79
2023/09/21 08:40:50;;;;;;;10.85;3.97;;;;;;;24.58;63.15;97673.91;4409734;32;20105;-79
2023/09/21 08:43:21;;;;;;;10.35;3.95;;;;;;;24.91;61.81;97673.94;4395563;32;20170;-80
2023/09/21 08:45:49;;;;;;;9.50;3.83;;;;;;;25.06;60.89;97673.12;4409652;32;20097;-79
2023/09/21 08:48:23;;;;;;;10.50;3.85;;;;;;;25.02;61.81;97668.34;4396184;32;20116;-80
2023/09/21 08:50:54;;;;;;;9.60;4.10;;;;;;;25.62;59.93;97667.91;4409161;32;20169;-79
2023/09/21 08:53:23;;;;;;;8.70;3.87;;;;;;;25.38;60.09;97663.50;4384053;32;20124;-79
2023/09/21 08:55:52;;;;;;;12.40;3.97;;;;;;;24.99;60.89;97655.44;4396026;32;20111;-79
2023/09/21 08:58:23;;;;;;;10.52;3.90;;;;;;;25.18;60.69;97656.94;4409299;32;20123;-79
2023/09/21 09:00:55;;;;;;;13.00;4.30;;;;;;;24.98;60.90;97657.25;4409635;32;20157;-79
2023/09/21 09:03:26;;;;;;;10.30;3.95;;;;;;;25.59;59.72;97660.34;4409178;32;20098;-79
2023/09/21 09:05:58;;;;;;;11.40;3.92;;;;;;;25.58;59.14;97656.88;4409303;32;20166;-79
2023/09/21 09:08:27;;;;;;;14.02;4.12;;;;;;;24.96;60.47;97655.78;4409242;32;20484;-79
2023/09/21 09:10:56;;;;;;;10.50;3.95;;;;;;;25.74;59.31;97648.13;4395192;32;20479;-80
2023/09/21 09:13:33;;;;;;;9.27;3.58;;;;;;;26.23;55.24;97645.22;4409020;32;20108;-81
2023/09/21 09:16:01;;;;;;;10.38;3.85;;;;;;;26.68;54.45;97641.81;4409146;32;20098;-81
2023/09/21 09:18:35;;;;;;;11.63;4.00;;;;;;;27.32;53.25;97639.63;4395391;32;20139;-81
2023/09/21 09:21:04;;;;;;;13.80;3.90;;;;;;;27.29;53.65;97641.84;4408669;32;20168;-82
2023/09/21 09:23:31;;;;;;;13.02;3.30;;;;;;;27.73;51.97;97639.22;4408578;32;20134;-80
2023/09/21 09:26:08;;;;;;;10.63;3.78;;;;;;;27.96;49.21;97642.56;4408386;32;20707;-81
2023/09/21 09:28:35;;;;;;;11.23;3.47;;;;;;;28.53;48.65;97631.22;4409016;32;20085;-81
2023/09/21 09:31:10;;;;;;;12.90;3.33;;;;;;;28.61;47.95;97637.44;4408598;32;20090;-80
2023/09/21 09:33:41;;;;;;;12.25;3.58;;;;;;;28.53;47.69;97633.06;4408703;32;20098;-80
2023/09/21 09:36:08;;;;;;;10.65;3.50;;;;;;;28.24;47.95;97629.47;4408854;32;20116;-81
2023/09/21 09:38:37;;;;;;;10.68;3.60;;;;;;;28.92;46.78;97623.81;4408404;32;20896;-81
2023/09/21 09:41:06;;;;;;;14.75;3.70;;;;;;;28.99;45.67;97617.56;4395165;32;20454;-80
2023/09/21 09:43:38;;;;;;;8.60;3.00;;;;;;;29.09;45.33;97617.22;4408726;32;20098;-80
2023/09/21 09:46:08;;;;;;;11.10;3.05;;;;;;;28.90;44.38;97620.56;4408285;32;20098;-81
2023/09/21 09:48:35;;;;;;;12.93;3.40;;;;;;;28.36;47.04;97621.03;4408703;32;20437;-81
2023/09/21 09:51:11;;;;;;;12.10;3.60;;;;;;;27.63;46.81;97623.56;4393471;32;20554;-81
2023/09/21 09:53:40;;;;;;;11.85;3.30;;;;;;;27.31;48.77;97622.09;4406010;32;20098;-81
2023/09/21 09:56:10;;;;;;;12.55;3.60;;;;;;;27.29;49.59;97618.00;4392588;32;20622;-81
2023/09/21 09:58:41;;;;;;;11.50;3.65;;;;;;;26.97;50.15;97611.16;4393191;32;20192;-82
2023/09/21 10:01:09;;;;;;;15.32;3.55;;;;;;;28.05;49.57;97613.31;4392592;32;20086;-80
2023/09/21 10:03:38;;;;;;;8.93;3.20;;;;;;;28.50;46.75;97596.28;4406735;32;20452;-81
2023/09/21 10:06:08;;;;;;;12.68;3.55;;;;;;;29.04;44.76;97593.91;4392911;32;20102;-81
2023/09/21 10:08:39;;;;;;;9.75;3.08;;;;;;;29.23;44.32;97583.59;4407413;32;20440;-81
2023/09/21 10:11:07;;;;;;;14.02;3.22;;;;;;;28.65;44.34;97580.28;4394610;32;20138;-81
2023/09/21 10:13:53;;;;;;;8.80;2.90;;;;;;;28.56;44.28;97576.13;4408058;32;20114;-81
2023/09/21 10:16:20;;;;;;;11.48;3.20;;;;;;;27.98;45.62;97580.62;4408266;32;20117;-81
2023/09/21 10:18:53;;;;;;;12.32;3.40;;;;;;;28.31;44.97;97563.25;4408386;32;20078;-81
2023/09/21 10:21:24;;;;;;;12.20;3.22;;;;;;;28.67;45.04;97562.34;4407913;32;20462;-81
2023/09/21 10:24:04;;;;;;;11.55;3.08;;;;;;;28.93;44.19;97565.25;4408072;32;20103;-81
2023/09/21 10:26:35;;;;;;;11.52;2.90;;;;;;;28.80;44.82;97555.28;4394486;32;20464;-81
2023/09/21 10:29:03;;;;;;;11.25;2.65;;;;;;;29.30;43.43;97553.41;4407880;32;20461;-81
2023/09/21 10:31:33;;;;;;;11.12;2.80;;;;;;;29.17;42.88;97544.56;4409998;32;20077;-81
2023/09/21 10:34:00;;;;;;;11.25;2.78;;;;;;;28.88;43.72;97543.75;4396873;32;20102;-80
2023/09/21 10:36:28;;;;;;;8.38;2.87;;;;;;;28.91;42.72;97537.22;4410023;32;20089;-83
2023/09/21 10:39:13;;;;;;;14.73;2.80;;;;;;;29.08;42.58;97543.88;4410762;32;20105;-82
2023/09/21 10:41:43;;;;;;;12.52;2.95;;;;;;;28.93;41.89;97546.66;4396320;32;20220;-82
2023/09/21 10:44:11;;;;;;;9.32;2.60;;;;;;;29.42;42.12;97543.03;4410106;32;20114;-82
2023/09/21 10:46:41;;;;;;;10.32;2.55;;;;;;;29.54;41.66;97544.16;4410260;32;20153;-81
2023/09/21 10:49:15;;;;;;;12.13;3.20;;;;;;;29.38;42.17;97536.50;4409891;32;20094;-81
2023/09/21 10:51:42;;;;;;;14.45;2.95;;;;;;;29.37;41.80;97535.69;4396500;32;20365;-81
2023/09/21 10:54:12;;;;;;;11.52;3.08;;;;;;;29.27;42.04;97534.41;4396265;32;20140;-80
2023/09/21 10:56:41;;;;;;;13.43;3.25;;;;;;;29.44;42.14;97530.38;4409748;32;20109;-80
2023/09/21 10:59:11;;;;;;;10.65;2.95;;;;;;;29.81;41.62;97529.13;4410005;32;20085;-78
2023/09/21 11:01:39;;;;;;;12.73;3.10;;;;;;;29.65;40.16;97540.09;4409853;32;20077;-78
2023/09/21 11:04:07;;;;;;;17.77;3.08;;;;;;;28.98;41.46;97535.44;4396705;32;20153;-78
2023/09/21 11:06:34;;;;;;;11.90;2.75;;;;;;;29.42;41.29;97532.41;4410591;32;20144;-81
2023/09/21 11:09:02;;;;;;;12.55;3.00;;;;;;;29.95;40.86;97519.34;4410273;32;20085;-81
2023/09/21 11:11:29;;;;;;;11.70;3.20;;;;;;;30.25;40.21;97514.53;4409580;32;20105;-83
2023/09/21 11:13:56;;;;;;;11.18;3.00;;;;;;;29.98;41.21;97513.63;4410108;32;20165;-82
2023/09/21 11:16:24;;;;;;;12.50;3.37;;;;;;;29.74;41.20;97514.16;4410150;32;20143;-81
2023/09/21 11:18:53;;;;;;;13.95;3.10;;;;;;;29.35;40.51;97502.34;4410028;32;20096;-79
2023/09/21 11:21:22;;;;;;;9.93;2.92;;;;;;;29.73;40.13;97502.72;4410302;32;20147;-80
2023/09/21 11:23:53;;;;;;;10.10;2.80;;;;;;;30.14;40.18;97502.63;4410080;32;20177;-79
2023/09/21 11:26:22;;;;;;;12.45;2.70;;;;;;;29.38;41.21;97496.62;4410355;32;20421;-80
2023/09/21 11:28:58;;;;;;;9.82;3.25;;;;;;;29.35;41.64;97475.78;4410207;32;20094;-80
2023/09/21 11:31:28;;;;;;;9.20;2.80;;;;;;;28.97;42.48;97486.81;4409801;32;20137;-80
2023/09/21 11:34:05;;;;;;;12.82;3.12;;;;;;;28.80;42.54;97480.94;4410025;32;20157;-80
2023/09/21 11:36:33;;;;;;;15.20;2.92;;;;;;;29.05;41.68;97477.87;4410456;32;20098;-78
2023/09/21 11:39:01;;;;;;;12.23;3.00;;;;;;;28.88;41.58;97474.72;4409888;32;20104;-79
2023/09/21 11:41:29;;;;;;;10.27;2.95;;;;;;;29.14;41.42;97471.41;4410095;32;20090;-80